createdAt,value
2018-03-31T00:00:01.613Z,999.37
2018-03-31T00:01:01.563Z,999.33
2018-03-31T00:02:53.342Z,999.30
2018-03-31T00:03:53.273Z,999.30
2018-03-31T00:05:45.090Z,999.31
2018-03-31T00:06:45.020Z,999.29
2018-03-31T00:08:36.777Z,999.36
2018-03-31T00:09:36.692Z,999.39
2018-03-31T00:11:28.461Z,999.41
2018-03-31T00:12:28.382Z,999.45
2018-03-31T00:14:20.226Z,999.41
2018-03-31T00:15:20.132Z,999.42
2018-03-31T00:17:11.924Z,999.38
2018-03-31T00:18:11.824Z,999.42
2018-03-31T00:20:03.564Z,999.37
2018-03-31T00:21:03.492Z,999.28
2018-03-31T00:22:55.268Z,999.25
2018-03-31T00:23:55.183Z,999.21
2018-03-31T00:25:46.935Z,999.13
2018-03-31T00:26:46.847Z,999.24
2018-03-31T00:28:38.618Z,999.27
2018-03-31T00:29:38.542Z,999.16
2018-03-31T00:31:30.368Z,999.11
2018-03-31T00:32:30.287Z,999.08
2018-03-31T00:34:22.045Z,999.11
2018-03-31T00:35:21.975Z,999.07
2018-03-31T00:37:13.794Z,999.07
2018-03-31T00:38:13.705Z,999.00
2018-03-31T00:40:05.504Z,999.05
2018-03-31T00:41:05.426Z,999.03
2018-03-31T00:42:57.233Z,999.00
2018-03-31T00:43:57.151Z,999.00
2018-03-31T00:45:48.897Z,999.04
2018-03-31T00:46:48.828Z,999.03
2018-03-31T00:48:40.622Z,998.93
2018-03-31T00:49:40.544Z,998.96
2018-03-31T00:51:32.316Z,998.88
2018-03-31T00:52:32.237Z,998.88
2018-03-31T00:54:23.974Z,998.87
2018-03-31T00:55:23.902Z,998.88
2018-03-31T00:57:15.653Z,998.76
2018-03-31T00:58:15.623Z,998.75
2018-03-31T01:00:07.336Z,998.74
2018-03-31T01:01:07.257Z,998.76
2018-03-31T01:02:59.004Z,998.82
2018-03-31T01:03:58.921Z,998.79
2018-03-31T01:05:50.685Z,998.78
2018-03-31T01:06:50.617Z,998.72
2018-03-31T01:08:42.368Z,998.73
2018-03-31T01:09:42.285Z,998.66
2018-03-31T01:11:34.106Z,998.71
2018-03-31T01:12:34.030Z,998.71
2018-03-31T01:14:25.788Z,998.69
2018-03-31T01:15:25.721Z,998.71
2018-03-31T01:17:17.496Z,998.67
2018-03-31T01:18:17.421Z,998.69
2018-03-31T01:20:09.173Z,998.64
2018-03-31T01:21:09.096Z,998.65
2018-03-31T01:23:00.880Z,998.67
2018-03-31T01:24:00.800Z,998.71
2018-03-31T01:25:52.546Z,998.66
2018-03-31T01:26:52.471Z,998.59
2018-03-31T01:28:44.220Z,998.57
2018-03-31T01:29:44.195Z,998.61
2018-03-31T01:31:35.927Z,998.61
2018-03-31T01:32:35.833Z,998.56
2018-03-31T01:34:27.568Z,998.55
2018-03-31T01:35:27.513Z,998.59
2018-03-31T01:37:19.272Z,998.58
2018-03-31T01:38:19.190Z,998.58
2018-03-31T01:40:10.941Z,998.53
2018-03-31T01:41:10.871Z,998.51
2018-03-31T01:43:03.635Z,998.41
2018-03-31T01:44:03.559Z,998.40
2018-03-31T01:45:55.354Z,998.39
2018-03-31T01:46:55.286Z,998.37
2018-03-31T01:48:47.066Z,998.44
2018-03-31T01:49:46.966Z,998.45
2018-03-31T01:51:38.701Z,998.47
2018-03-31T01:52:38.631Z,998.43
2018-03-31T01:54:31.391Z,998.44
2018-03-31T01:55:31.309Z,998.48
2018-03-31T01:57:23.087Z,998.45
2018-03-31T01:58:23.004Z,998.45
2018-03-31T02:00:14.756Z,998.44
2018-03-31T02:01:14.706Z,998.40
2018-03-31T02:03:06.441Z,998.41
2018-03-31T02:04:06.360Z,998.42
2018-03-31T02:05:58.096Z,998.45
2018-03-31T02:06:58.031Z,998.40
2018-03-31T02:08:49.872Z,998.41
2018-03-31T02:09:49.764Z,998.45
2018-03-31T02:11:41.602Z,998.38
2018-03-31T02:12:41.530Z,998.34
2018-03-31T02:14:33.301Z,998.33
2018-03-31T02:15:33.225Z,998.32
2018-03-31T02:17:24.967Z,998.32
2018-03-31T02:18:24.895Z,998.27
2018-03-31T02:20:16.786Z,998.22
2018-03-31T02:21:16.669Z,998.20
2018-03-31T02:23:08.447Z,998.21
2018-03-31T02:24:08.371Z,998.18
2018-03-31T02:26:00.180Z,998.08
2018-03-31T02:27:00.111Z,998.11
2018-03-31T02:28:51.874Z,998.09
2018-03-31T02:29:51.791Z,998.10
2018-03-31T02:31:43.548Z,998.06
2018-03-31T02:32:43.467Z,998.07
2018-03-31T02:34:35.236Z,998.00
2018-03-31T02:35:35.158Z,997.98
2018-03-31T02:37:26.946Z,998.01
2018-03-31T02:38:26.868Z,997.99
2018-03-31T02:40:18.620Z,997.95
2018-03-31T02:41:18.558Z,997.94
2018-03-31T02:43:10.341Z,997.87
2018-03-31T02:44:10.261Z,997.86
2018-03-31T02:46:02.008Z,997.89
2018-03-31T02:47:01.949Z,997.87
2018-03-31T02:48:53.848Z,997.83
2018-03-31T02:49:53.775Z,997.86
2018-03-31T02:51:45.657Z,997.82
2018-03-31T02:52:45.561Z,997.79
2018-03-31T02:54:37.366Z,997.76
2018-03-31T02:55:37.324Z,997.82
2018-03-31T02:57:29.094Z,997.83
2018-03-31T02:58:29.009Z,997.90
2018-03-31T03:00:20.782Z,997.86
2018-03-31T03:01:20.715Z,997.82
2018-03-31T03:03:12.498Z,997.77
2018-03-31T03:04:12.400Z,997.71
2018-03-31T03:06:04.295Z,997.71
2018-03-31T03:07:04.228Z,997.58
2018-03-31T03:08:56.995Z,997.58
2018-03-31T03:09:56.966Z,997.55
2018-03-31T03:11:48.705Z,997.52
2018-03-31T03:12:48.637Z,997.56
2018-03-31T03:14:40.459Z,997.47
2018-03-31T03:15:40.345Z,997.46
2018-03-31T03:17:32.168Z,997.45
2018-03-31T03:18:32.052Z,997.48
2018-03-31T03:20:23.951Z,997.52
2018-03-31T03:21:23.908Z,997.51
2018-03-31T03:23:15.679Z,997.52
2018-03-31T03:24:15.620Z,997.48
2018-03-31T03:26:07.395Z,997.46
2018-03-31T03:27:07.324Z,997.46
2018-03-31T03:28:59.137Z,997.38
2018-03-31T03:29:59.070Z,997.34
2018-03-31T03:31:50.868Z,997.34
2018-03-31T03:32:50.802Z,997.21
2018-03-31T03:34:42.703Z,997.15
2018-03-31T03:35:42.630Z,997.17
2018-03-31T03:37:34.420Z,997.23
2018-03-31T03:38:34.352Z,997.22
2018-03-31T03:40:26.097Z,997.16
2018-03-31T03:41:26.019Z,997.18
2018-03-31T03:43:17.957Z,997.08
2018-03-31T03:44:17.876Z,997.08
2018-03-31T03:46:09.710Z,997.10
2018-03-31T03:47:09.637Z,997.05
2018-03-31T03:49:01.417Z,997.16
2018-03-31T03:50:01.333Z,997.19
2018-03-31T03:51:53.081Z,997.23
2018-03-31T03:52:53.015Z,997.26
2018-03-31T03:54:44.768Z,997.33
2018-03-31T03:55:44.689Z,997.34
2018-03-31T03:57:37.434Z,997.34
2018-03-31T03:58:37.373Z,997.31
2018-03-31T04:00:29.253Z,997.25
2018-03-31T04:01:29.151Z,997.21
2018-03-31T04:03:20.914Z,997.19
2018-03-31T04:04:20.833Z,997.18
2018-03-31T04:06:12.680Z,997.20
2018-03-31T04:07:12.607Z,997.19
2018-03-31T04:09:04.413Z,997.19
2018-03-31T04:10:04.279Z,997.16
2018-03-31T04:11:56.072Z,997.14
2018-03-31T04:12:56.042Z,997.15
2018-03-31T04:14:47.820Z,997.17
2018-03-31T04:15:47.708Z,997.13
2018-03-31T04:17:39.446Z,997.08
2018-03-31T04:18:39.365Z,997.07
2018-03-31T04:20:31.240Z,997.06
2018-03-31T04:21:31.082Z,997.00
2018-03-31T04:23:22.910Z,997.04
2018-03-31T04:24:22.827Z,996.99
2018-03-31T04:26:15.581Z,997.07
2018-03-31T04:27:15.512Z,997.01
2018-03-31T04:29:07.259Z,997.03
2018-03-31T04:30:07.179Z,997.02
2018-03-31T04:31:58.936Z,996.90
2018-03-31T04:32:58.871Z,996.95
2018-03-31T04:34:50.621Z,996.89
2018-03-31T04:35:50.544Z,996.89
2018-03-31T04:37:42.409Z,996.77
2018-03-31T04:38:42.343Z,996.78
2018-03-31T04:40:34.108Z,996.74
2018-03-31T04:41:34.032Z,996.72
2018-03-31T04:43:25.776Z,996.75
2018-03-31T04:44:25.708Z,996.74
2018-03-31T04:46:17.493Z,996.80
2018-03-31T04:47:17.419Z,996.75
2018-03-31T04:49:09.185Z,996.77
2018-03-31T04:50:09.110Z,996.70
2018-03-31T04:52:00.866Z,996.72
2018-03-31T04:53:00.798Z,996.71
2018-03-31T04:54:52.601Z,996.74
2018-03-31T04:55:52.522Z,996.78
2018-03-31T04:57:44.335Z,996.79
2018-03-31T04:58:44.244Z,996.80
2018-03-31T05:00:36.075Z,996.75
2018-03-31T05:01:36.024Z,996.78
2018-03-31T05:03:27.781Z,996.78
2018-03-31T05:04:27.705Z,996.81
2018-03-31T05:06:19.492Z,996.80
2018-03-31T05:07:19.425Z,996.82
2018-03-31T05:09:11.197Z,996.73
2018-03-31T05:10:11.118Z,996.76
2018-03-31T05:12:02.910Z,996.74
2018-03-31T05:13:02.873Z,996.73
2018-03-31T05:14:54.795Z,996.81
2018-03-31T05:15:54.717Z,996.81
2018-03-31T05:17:46.469Z,996.77
2018-03-31T05:18:46.399Z,996.81
2018-03-31T05:20:39.222Z,996.79
2018-03-31T05:21:39.123Z,996.75
2018-03-31T05:23:30.884Z,996.75
2018-03-31T05:24:30.804Z,996.77
2018-03-31T05:26:22.589Z,996.74
2018-03-31T05:27:22.501Z,996.77
2018-03-31T05:29:15.277Z,996.71
2018-03-31T05:30:15.199Z,996.70
2018-03-31T05:32:06.984Z,996.78
2018-03-31T05:33:06.899Z,996.75
2018-03-31T05:34:58.673Z,996.73
2018-03-31T05:35:58.586Z,996.73
2018-03-31T05:37:50.410Z,996.69
2018-03-31T05:38:50.363Z,996.69
2018-03-31T05:40:42.129Z,996.65
2018-03-31T05:41:42.040Z,996.71
2018-03-31T05:43:33.923Z,996.75
2018-03-31T05:44:33.799Z,996.75
2018-03-31T05:46:25.607Z,996.80
2018-03-31T05:47:25.524Z,996.79
2018-03-31T05:49:17.303Z,996.83
2018-03-31T05:50:17.218Z,996.77
2018-03-31T05:52:09.061Z,996.79
2018-03-31T05:53:08.992Z,996.81
2018-03-31T05:55:00.821Z,996.72
2018-03-31T05:56:00.741Z,996.74
2018-03-31T05:57:52.514Z,996.73
2018-03-31T05:58:52.436Z,996.71
2018-03-31T06:00:44.288Z,996.69
2018-03-31T06:01:44.198Z,996.63
2018-03-31T06:03:36.013Z,996.57
2018-03-31T06:04:35.868Z,996.54
2018-03-31T06:06:27.647Z,996.50
2018-03-31T06:07:27.572Z,996.48
2018-03-31T06:09:19.324Z,996.49
2018-03-31T06:10:19.242Z,996.45
2018-03-31T06:12:11.092Z,996.41
2018-03-31T06:13:11.024Z,996.45
2018-03-31T06:15:02.887Z,996.42
2018-03-31T06:16:02.730Z,996.47
2018-03-31T06:17:54.461Z,996.47
2018-03-31T06:18:54.389Z,996.45
2018-03-31T06:20:46.205Z,996.47
2018-03-31T06:21:46.185Z,996.39
2018-03-31T06:23:37.938Z,996.36
2018-03-31T06:24:37.881Z,996.38
2018-03-31T06:26:29.640Z,996.34
2018-03-31T06:27:29.558Z,996.31
2018-03-31T06:29:22.523Z,996.34
2018-03-31T06:30:22.436Z,996.35
2018-03-31T06:32:14.261Z,996.38
2018-03-31T06:33:14.123Z,996.33
2018-03-31T06:35:05.870Z,996.35
2018-03-31T06:36:05.792Z,996.33
2018-03-31T06:37:58.202Z,996.23
2018-03-31T06:38:57.502Z,996.20
2018-03-31T06:40:49.326Z,996.14
2018-03-31T06:41:49.244Z,996.10
2018-03-31T06:43:40.986Z,996.05
2018-03-31T06:44:40.918Z,996.08
2018-03-31T06:46:32.722Z,996.03
2018-03-31T06:47:32.648Z,995.98
2018-03-31T06:49:24.393Z,996.03
2018-03-31T06:50:24.314Z,996.03
2018-03-31T06:52:16.193Z,995.98
2018-03-31T06:53:16.076Z,996.02
2018-03-31T06:55:07.971Z,995.97
2018-03-31T06:56:07.760Z,995.99
2018-03-31T06:57:59.677Z,995.89
2018-03-31T06:58:59.593Z,995.90
2018-03-31T07:00:51.360Z,995.87
2018-03-31T07:01:51.293Z,995.86
2018-03-31T07:03:43.133Z,995.81
2018-03-31T07:04:43.065Z,995.85
2018-03-31T07:06:34.808Z,995.95
2018-03-31T07:07:34.729Z,995.98
2018-03-31T07:09:26.543Z,995.98
2018-03-31T07:10:26.396Z,996.01
2018-03-31T07:12:18.238Z,996.05
2018-03-31T07:13:18.240Z,996.07
2018-03-31T07:15:10.104Z,996.10
2018-03-31T07:16:09.941Z,996.04
2018-03-31T07:18:01.739Z,995.99
2018-03-31T07:19:01.667Z,995.96
2018-03-31T07:20:53.661Z,995.98
2018-03-31T07:21:53.529Z,995.91
2018-03-31T07:23:45.344Z,995.82
2018-03-31T07:24:45.274Z,995.90
2018-03-31T07:26:37.198Z,995.92
2018-03-31T07:27:37.116Z,995.95
2018-03-31T07:29:29.103Z,995.98
2018-03-31T07:30:28.965Z,995.98
2018-03-31T07:32:20.722Z,996.02
2018-03-31T07:33:20.653Z,995.94
2018-03-31T07:35:13.473Z,995.85
2018-03-31T07:36:13.395Z,995.90
2018-03-31T07:38:06.996Z,995.85
2018-03-31T07:39:06.937Z,995.79
2018-03-31T07:40:58.697Z,995.79
2018-03-31T07:41:58.622Z,995.75
2018-03-31T07:43:50.635Z,995.73
2018-03-31T07:44:50.550Z,995.75
2018-03-31T07:46:42.360Z,995.71
2018-03-31T07:47:42.258Z,995.71
2018-03-31T07:49:34.133Z,995.65
2018-03-31T07:50:34.035Z,995.68
2018-03-31T07:52:26.791Z,995.62
2018-03-31T07:53:26.724Z,995.66
2018-03-31T07:55:19.513Z,995.64
2018-03-31T07:56:19.430Z,995.60
2018-03-31T07:58:12.205Z,995.62
2018-03-31T07:59:12.137Z,995.61
2018-03-31T08:01:08.056Z,995.58
2018-03-31T08:02:04.817Z,995.52
2018-03-31T08:03:57.608Z,995.54
2018-03-31T08:04:57.539Z,995.53
2018-03-31T08:06:50.362Z,995.47
2018-03-31T08:07:50.232Z,995.45
2018-03-31T08:09:43.027Z,995.48
2018-03-31T08:10:42.955Z,995.41
2018-03-31T08:12:35.680Z,995.47
2018-03-31T08:13:35.597Z,995.40
2018-03-31T08:15:28.353Z,995.43
2018-03-31T08:16:28.274Z,995.46
2018-03-31T08:18:21.158Z,995.44
2018-03-31T08:19:20.951Z,995.34
2018-03-31T08:21:13.771Z,995.36
2018-03-31T08:22:13.760Z,995.32
2018-03-31T08:24:06.456Z,995.30
2018-03-31T08:25:06.437Z,995.27
2018-03-31T08:26:59.149Z,995.31
2018-03-31T08:27:59.068Z,995.26
2018-03-31T08:29:51.832Z,995.31
2018-03-31T08:30:51.750Z,995.32
2018-03-31T08:32:44.527Z,995.30
2018-03-31T08:33:44.499Z,995.27
2018-03-31T08:35:37.197Z,995.21
2018-03-31T08:36:37.124Z,995.24
2018-03-31T08:38:29.877Z,995.18
2018-03-31T08:39:29.808Z,995.19
2018-03-31T08:41:22.582Z,995.07
2018-03-31T08:42:22.500Z,995.02
2018-03-31T08:44:15.303Z,994.94
2018-03-31T08:45:15.234Z,995.02
2018-03-31T08:47:08.051Z,994.94
2018-03-31T08:48:07.917Z,995.00
2018-03-31T08:50:00.697Z,994.95
2018-03-31T08:51:00.631Z,994.94
2018-03-31T08:52:53.431Z,994.92
2018-03-31T08:53:53.354Z,994.86
2018-03-31T08:55:46.113Z,994.94
2018-03-31T08:56:46.032Z,994.86
2018-03-31T08:58:38.815Z,994.84
2018-03-31T08:59:38.741Z,994.86
2018-03-31T09:01:31.513Z,994.86
2018-03-31T09:02:31.464Z,994.83
2018-03-31T09:04:24.198Z,994.89
2018-03-31T09:05:24.122Z,994.82
2018-03-31T09:07:18.522Z,994.81
2018-03-31T09:08:16.969Z,994.83
2018-03-31T09:10:09.661Z,994.84
2018-03-31T09:11:09.599Z,994.83
2018-03-31T09:13:02.357Z,994.76
2018-03-31T09:14:02.280Z,994.81
2018-03-31T09:15:55.170Z,994.72
2018-03-31T09:16:54.973Z,994.75
2018-03-31T09:18:47.766Z,994.73
2018-03-31T09:19:47.705Z,994.74
2018-03-31T09:21:40.517Z,994.68
2018-03-31T09:22:45.780Z,994.76
2018-03-31T09:24:33.183Z,994.80
2018-03-31T09:25:33.118Z,994.80
2018-03-31T09:27:25.886Z,994.74
2018-03-31T09:28:25.806Z,994.73
2018-03-31T09:30:18.554Z,994.74
2018-03-31T09:31:18.482Z,994.75
2018-03-31T09:33:11.262Z,994.79
2018-03-31T09:34:11.168Z,994.74
2018-03-31T09:36:03.915Z,994.67
2018-03-31T09:37:03.988Z,994.67
2018-03-31T09:38:56.625Z,994.65
2018-03-31T09:39:56.588Z,994.61
2018-03-31T09:41:49.325Z,994.59
2018-03-31T09:42:49.230Z,994.64
2018-03-31T09:44:42.027Z,994.59
2018-03-31T09:45:41.959Z,994.64
2018-03-31T09:47:34.725Z,994.66
2018-03-31T09:48:34.645Z,994.62
2018-03-31T09:50:27.406Z,994.56
2018-03-31T09:51:27.335Z,994.56
2018-03-31T09:53:20.118Z,994.54
2018-03-31T09:54:20.048Z,994.53
2018-03-31T09:56:12.948Z,994.47
2018-03-31T09:57:12.761Z,994.46
2018-03-31T09:59:05.515Z,994.43
2018-03-31T10:00:05.440Z,994.41
2018-03-31T10:01:58.224Z,994.31
2018-03-31T10:02:58.130Z,994.36
2018-03-31T10:04:50.899Z,994.34
2018-03-31T10:05:50.832Z,994.29
2018-03-31T10:07:43.624Z,994.22
2018-03-31T10:08:43.579Z,994.26
2018-03-31T10:10:36.303Z,994.20
2018-03-31T10:11:36.224Z,994.22
2018-03-31T10:13:29.021Z,994.11
2018-03-31T10:14:28.944Z,994.16
2018-03-31T10:16:21.740Z,994.17
2018-03-31T10:17:21.655Z,994.15
2018-03-31T10:19:14.390Z,994.07
2018-03-31T10:20:14.478Z,994.08
2018-03-31T10:22:07.124Z,994.03
2018-03-31T10:23:07.134Z,993.99
2018-03-31T10:24:59.795Z,993.95
2018-03-31T10:25:59.736Z,993.89
2018-03-31T10:27:52.489Z,993.86
2018-03-31T10:28:52.410Z,993.88
2018-03-31T10:30:45.187Z,993.85
2018-03-31T10:31:45.111Z,993.83
2018-03-31T10:33:37.967Z,993.71
2018-03-31T10:34:37.890Z,993.80
2018-03-31T10:36:30.751Z,993.84
2018-03-31T10:37:30.649Z,993.86
2018-03-31T10:39:23.420Z,993.89
2018-03-31T10:40:23.338Z,993.93
2018-03-31T10:42:16.090Z,993.95
2018-03-31T10:43:16.011Z,994.00
2018-03-31T10:45:08.780Z,994.02
2018-03-31T10:46:08.708Z,993.98
2018-03-31T10:48:01.481Z,994.01
2018-03-31T10:49:01.401Z,993.97
2018-03-31T10:50:54.244Z,994.05
2018-03-31T10:51:54.086Z,994.13
2018-03-31T10:53:46.851Z,994.34
2018-03-31T10:54:46.808Z,994.43
2018-03-31T10:56:39.620Z,994.49
2018-03-31T10:57:39.487Z,994.53
2018-03-31T10:59:32.415Z,994.47
2018-03-31T11:00:32.350Z,994.46
2018-03-31T11:02:25.114Z,994.46
2018-03-31T11:03:25.032Z,994.47
2018-03-31T11:05:17.789Z,994.49
2018-03-31T11:06:17.721Z,994.50
2018-03-31T11:08:10.521Z,994.48
2018-03-31T11:09:10.427Z,994.41
2018-03-31T11:11:03.176Z,994.44
2018-03-31T11:12:03.110Z,994.49
2018-03-31T11:13:55.920Z,994.43
2018-03-31T11:14:55.819Z,994.44
2018-03-31T11:16:48.582Z,994.41
2018-03-31T11:17:48.518Z,994.43
2018-03-31T11:19:41.294Z,994.39
2018-03-31T11:20:41.276Z,994.37
2018-03-31T11:22:34.035Z,994.34
2018-03-31T11:23:33.919Z,994.35
2018-03-31T11:25:26.690Z,994.34
2018-03-31T11:26:26.621Z,994.32
2018-03-31T11:28:19.380Z,994.33
2018-03-31T11:29:19.310Z,994.35
2018-03-31T11:31:12.102Z,994.40
2018-03-31T11:32:12.030Z,994.43
2018-03-31T11:34:04.818Z,994.38
2018-03-31T11:35:04.719Z,994.41
2018-03-31T11:36:57.483Z,994.40
2018-03-31T11:37:57.416Z,994.43
2018-03-31T11:39:50.370Z,994.41
2018-03-31T11:40:50.102Z,994.42
2018-03-31T11:42:42.912Z,994.37
2018-03-31T11:43:42.813Z,994.31
2018-03-31T11:45:35.690Z,994.27
2018-03-31T11:46:35.494Z,994.23
2018-03-31T11:48:28.445Z,994.14
2018-03-31T11:49:28.210Z,994.12
2018-03-31T11:51:20.973Z,994.18
2018-03-31T11:52:20.906Z,994.19
2018-03-31T11:54:13.764Z,994.24
2018-03-31T11:55:13.668Z,994.26
2018-03-31T11:57:06.424Z,994.22
2018-03-31T11:58:06.376Z,994.15
2018-03-31T11:59:59.154Z,994.08
2018-03-31T12:00:59.077Z,994.04
2018-03-31T12:02:51.831Z,994.03
2018-03-31T12:03:51.750Z,994.09
2018-03-31T12:05:44.519Z,994.02
2018-03-31T12:06:44.488Z,994.01
2018-03-31T12:08:37.296Z,993.98
2018-03-31T12:09:37.266Z,994.02
2018-03-31T12:11:30.016Z,993.93
2018-03-31T12:12:29.902Z,993.92
2018-03-31T12:14:22.824Z,993.96
2018-03-31T12:15:22.616Z,993.94
2018-03-31T12:17:15.395Z,993.86
2018-03-31T12:18:15.315Z,993.90
2018-03-31T12:20:08.109Z,993.83
2018-03-31T12:21:07.991Z,993.90
2018-03-31T12:23:00.800Z,993.86
2018-03-31T12:24:00.691Z,993.86
2018-03-31T12:25:53.463Z,993.97
2018-03-31T12:26:53.404Z,993.95
2018-03-31T12:28:46.161Z,993.91
2018-03-31T12:29:46.085Z,993.90
2018-03-31T12:31:38.877Z,993.81
2018-03-31T12:32:38.811Z,993.79
2018-03-31T12:34:31.687Z,993.64
2018-03-31T12:35:31.565Z,993.62
2018-03-31T12:37:24.311Z,993.61
2018-03-31T12:38:24.245Z,993.63
2018-03-31T12:40:17.042Z,993.54
2018-03-31T12:41:16.928Z,993.53
2018-03-31T12:43:09.708Z,993.50
2018-03-31T12:44:09.629Z,993.51
2018-03-31T12:46:02.396Z,993.57
2018-03-31T12:47:02.319Z,993.54
2018-03-31T12:48:55.138Z,993.54
2018-03-31T12:49:55.020Z,993.53
2018-03-31T12:51:48.479Z,993.50
2018-03-31T12:52:47.754Z,993.51
2018-03-31T12:54:40.492Z,993.51
2018-03-31T12:55:40.415Z,993.53
2018-03-31T12:57:33.189Z,993.51
2018-03-31T12:58:33.120Z,993.51
2018-03-31T13:00:25.898Z,993.54
2018-03-31T13:01:25.821Z,993.57
2018-03-31T13:03:18.644Z,993.55
2018-03-31T13:04:18.530Z,993.58
2018-03-31T13:06:11.327Z,993.54
2018-03-31T13:07:11.250Z,993.51
2018-03-31T13:09:04.037Z,993.50
2018-03-31T13:10:03.929Z,993.52
2018-03-31T13:11:56.703Z,993.54
2018-03-31T13:12:56.639Z,993.57
2018-03-31T13:14:49.402Z,993.59
2018-03-31T13:15:49.386Z,993.58
2018-03-31T13:17:42.095Z,993.66
2018-03-31T13:18:42.029Z,993.68
2018-03-31T13:20:34.814Z,993.68
2018-03-31T13:21:34.733Z,993.70
2018-03-31T13:23:27.496Z,993.68
2018-03-31T13:24:27.432Z,993.73
2018-03-31T13:26:20.216Z,993.72
2018-03-31T13:27:20.117Z,993.71
2018-03-31T13:29:12.874Z,993.74
2018-03-31T13:30:12.796Z,993.69
2018-03-31T13:32:05.544Z,993.66
2018-03-31T13:33:05.478Z,993.65
2018-03-31T13:34:58.258Z,993.70
2018-03-31T13:35:58.174Z,993.73
2018-03-31T13:37:50.943Z,993.72
2018-03-31T13:38:50.879Z,993.76
2018-03-31T13:40:43.681Z,993.78
2018-03-31T13:41:43.607Z,993.76
2018-03-31T13:43:36.380Z,993.78
2018-03-31T13:44:36.390Z,993.74
2018-03-31T13:46:29.054Z,993.76
2018-03-31T13:47:28.971Z,993.74
2018-03-31T13:49:21.750Z,993.77
2018-03-31T13:50:21.671Z,993.72
2018-03-31T13:52:14.424Z,993.68
2018-03-31T13:53:14.360Z,993.67
2018-03-31T13:55:07.175Z,993.70
2018-03-31T13:56:07.097Z,993.71
2018-03-31T13:57:59.873Z,993.70
2018-03-31T13:58:59.845Z,993.66
2018-03-31T14:00:52.570Z,993.64
2018-03-31T14:01:52.522Z,993.61
2018-03-31T14:03:45.283Z,993.54
2018-03-31T14:04:45.234Z,993.55
2018-03-31T14:06:38.010Z,993.50
2018-03-31T14:07:37.920Z,993.50
2018-03-31T14:09:30.793Z,993.50
2018-03-31T14:10:30.756Z,993.53
2018-03-31T14:12:23.441Z,993.41
2018-03-31T14:13:23.379Z,993.44
2018-03-31T14:15:16.209Z,993.33
2018-03-31T14:16:16.109Z,993.28
2018-03-31T14:18:08.955Z,993.26
2018-03-31T14:19:08.889Z,993.29
2018-03-31T14:21:01.825Z,993.33
2018-03-31T14:22:01.590Z,993.36
2018-03-31T14:23:54.366Z,993.37
2018-03-31T14:24:54.265Z,993.32
2018-03-31T14:26:47.127Z,993.33
2018-03-31T14:27:47.079Z,993.29
2018-03-31T14:29:39.838Z,993.25
2018-03-31T14:30:39.766Z,993.27
2018-03-31T14:32:32.521Z,993.27
2018-03-31T14:33:32.445Z,993.28
2018-03-31T14:35:25.246Z,993.25
2018-03-31T14:36:25.168Z,993.24
2018-03-31T14:38:17.936Z,993.25
2018-03-31T14:39:17.849Z,993.25
2018-03-31T14:41:10.648Z,993.28
2018-03-31T14:42:10.542Z,993.29
2018-03-31T14:44:03.294Z,993.32
2018-03-31T14:45:03.226Z,993.25
2018-03-31T14:46:56.083Z,993.27
2018-03-31T14:47:55.961Z,993.30
2018-03-31T14:49:48.725Z,993.32
2018-03-31T14:50:48.646Z,993.33
2018-03-31T14:52:41.404Z,993.31
2018-03-31T14:53:41.339Z,993.31
2018-03-31T14:55:34.209Z,993.32
2018-03-31T14:56:34.134Z,993.32
2018-03-31T14:58:26.916Z,993.32
2018-03-31T14:59:26.883Z,993.33
2018-03-31T15:01:19.721Z,993.33
2018-03-31T15:02:19.631Z,993.33
2018-03-31T15:04:12.403Z,993.35
2018-03-31T15:05:12.375Z,993.34
2018-03-31T15:07:05.136Z,993.35
2018-03-31T15:08:05.055Z,993.35
2018-03-31T15:09:57.812Z,993.35
2018-03-31T15:10:57.734Z,993.32
2018-03-31T15:12:50.604Z,993.35
2018-03-31T15:13:50.546Z,993.32
2018-03-31T15:15:43.335Z,993.30
2018-03-31T15:16:43.310Z,993.30
2018-03-31T15:18:36.058Z,993.26
2018-03-31T15:19:35.995Z,993.22
2018-03-31T15:21:28.859Z,993.21
2018-03-31T15:22:28.776Z,993.19
2018-03-31T15:24:21.545Z,993.18
2018-03-31T15:25:21.474Z,993.15
2018-03-31T15:27:14.288Z,993.15
2018-03-31T15:28:14.195Z,993.16
2018-03-31T15:30:06.989Z,993.13
2018-03-31T15:31:06.973Z,993.10
2018-03-31T15:32:59.779Z,993.03
2018-03-31T15:33:59.711Z,992.99
2018-03-31T15:35:52.508Z,992.99
2018-03-31T15:36:52.404Z,992.97
2018-03-31T15:38:45.189Z,992.99
2018-03-31T15:39:45.121Z,992.94
2018-03-31T15:41:37.925Z,993.00
2018-03-31T15:42:37.851Z,992.96
2018-03-31T15:44:30.620Z,993.00
2018-03-31T15:45:30.565Z,992.96
2018-03-31T15:47:23.460Z,992.90
2018-03-31T15:48:23.284Z,992.95
2018-03-31T15:50:16.055Z,992.95
2018-03-31T15:51:15.951Z,992.95
2018-03-31T15:53:08.839Z,992.94
2018-03-31T15:54:08.663Z,992.90
2018-03-31T15:56:01.428Z,992.92
2018-03-31T15:57:01.351Z,992.91
2018-03-31T15:58:54.126Z,992.92
2018-03-31T15:59:54.055Z,992.96
2018-03-31T16:01:46.887Z,992.89
2018-03-31T16:02:46.821Z,992.90
2018-03-31T16:04:39.508Z,992.88
2018-03-31T16:05:39.454Z,992.86
2018-03-31T16:07:32.361Z,992.88
2018-03-31T16:08:32.148Z,992.88
2018-03-31T16:10:24.941Z,992.91
2018-03-31T16:11:24.863Z,992.88
2018-03-31T16:13:17.810Z,992.88
2018-03-31T16:14:17.560Z,992.88
2018-03-31T16:16:10.329Z,992.86
2018-03-31T16:17:10.247Z,992.87
2018-03-31T16:19:03.005Z,992.89
2018-03-31T16:20:02.941Z,992.86
2018-03-31T16:21:55.721Z,992.89
2018-03-31T16:22:55.714Z,992.87
2018-03-31T16:24:48.404Z,992.89
2018-03-31T16:25:48.374Z,992.82
2018-03-31T16:27:41.116Z,992.81
2018-03-31T16:28:41.070Z,992.82
2018-03-31T16:30:33.813Z,992.83
2018-03-31T16:31:33.736Z,992.81
2018-03-31T16:33:26.497Z,992.87
2018-03-31T16:34:26.471Z,992.87
2018-03-31T16:36:19.206Z,992.90
2018-03-31T16:37:19.129Z,992.89
2018-03-31T16:39:11.918Z,992.91
2018-03-31T16:40:11.849Z,992.92
2018-03-31T16:42:04.600Z,992.89
2018-03-31T16:43:04.520Z,992.89
2018-03-31T16:44:57.295Z,992.91
2018-03-31T16:45:57.294Z,992.91
2018-03-31T16:47:50.016Z,992.92
2018-03-31T16:48:49.930Z,992.88
2018-03-31T16:50:42.707Z,992.94
2018-03-31T16:51:42.615Z,992.98
2018-03-31T16:53:35.395Z,992.97
2018-03-31T16:54:35.331Z,993.01
2018-03-31T16:56:28.138Z,993.01
2018-03-31T16:57:28.062Z,992.94
2018-03-31T16:59:20.831Z,992.96
2018-03-31T17:00:20.772Z,992.94
2018-03-31T17:02:13.579Z,992.94
2018-03-31T17:03:13.477Z,992.98
2018-03-31T17:05:06.294Z,993.02
2018-03-31T17:06:06.226Z,993.01
2018-03-31T17:07:58.988Z,992.99
2018-03-31T17:08:58.908Z,992.98
2018-03-31T17:10:51.709Z,992.97
2018-03-31T17:11:51.598Z,993.00
2018-03-31T17:13:44.381Z,992.96
2018-03-31T17:14:44.314Z,992.99
2018-03-31T17:16:37.078Z,992.92
2018-03-31T17:17:37.042Z,992.92
2018-03-31T17:19:29.763Z,992.93
2018-03-31T17:20:29.757Z,992.91
2018-03-31T17:22:22.490Z,992.95
2018-03-31T17:23:22.417Z,992.95
2018-03-31T17:25:15.171Z,992.98
2018-03-31T17:26:15.107Z,992.98
2018-03-31T17:28:07.888Z,993.02
2018-03-31T17:29:07.804Z,992.98
2018-03-31T17:31:00.583Z,992.97
2018-03-31T17:32:00.514Z,992.98
2018-03-31T17:33:53.336Z,992.94
2018-03-31T17:34:53.278Z,993.01
2018-03-31T17:36:46.114Z,993.02
2018-03-31T17:37:45.999Z,993.02
2018-03-31T17:39:38.774Z,993.02
2018-03-31T17:40:38.697Z,993.04
2018-03-31T17:42:31.479Z,993.03
2018-03-31T17:43:31.395Z,993.01
2018-03-31T17:45:24.151Z,993.00
2018-03-31T17:46:24.075Z,993.01
2018-03-31T17:48:16.855Z,993.00
2018-03-31T17:49:16.799Z,993.01
2018-03-31T17:51:09.554Z,993.02
2018-03-31T17:52:09.474Z,993.06
2018-03-31T17:54:02.237Z,993.03